sensor_id;sensor_type;location;lat;lon;timestamp;P1;durP1;ratioP1;P2;durP2;ratioP2
78489;SDS011;67776;52.012;4.736;2023-03-19T00:01:20;12.70;;;6.57;;
78489;SDS011;67776;52.012;4.736;2023-03-19T00:03:45;15.00;;;7.47;;
78489;SDS011;67776;52.012;4.736;2023-03-19T00:06:11;14.68;;;7.63;;
78489;SDS011;67776;52.012;4.736;2023-03-19T00:08:37;14.83;;;7.87;;
78489;SDS011;67776;52.012;4.736;2023-03-19T00:11:06;14.40;;;7.53;;
78489;SDS011;67776;52.012;4.736;2023-03-19T00:13:32;13.03;;;7.77;;
78489;SDS011;67776;52.012;4.736;2023-03-19T00:15:57;15.52;;;8.07;;
78489;SDS011;67776;52.012;4.736;2023-03-19T00:18:23;14.13;;;8.20;;
78489;SDS011;67776;52.012;4.736;2023-03-19T00:20:49;14.47;;;8.20;;
78489;SDS011;67776;52.012;4.736;2023-03-19T00:23:14;15.55;;;8.77;;
78489;SDS011;67776;52.012;4.736;2023-03-19T00:25:42;13.40;;;8.50;;
78489;SDS011;67776;52.012;4.736;2023-03-19T00:28:07;17.33;;;9.10;;
78489;SDS011;67776;52.012;4.736;2023-03-19T00:30:33;16.73;;;8.80;;
78489;SDS011;67776;52.012;4.736;2023-03-19T00:32:58;14.97;;;8.70;;
78489;SDS011;67776;52.012;4.736;2023-03-19T00:35:23;16.35;;;8.32;;
78489;SDS011;67776;52.012;4.736;2023-03-19T00:37:49;15.67;;;9.40;;
78489;SDS011;67776;52.012;4.736;2023-03-19T00:40:14;14.97;;;9.07;;
78489;SDS011;67776;52.012;4.736;2023-03-19T00:42:40;17.10;;;9.43;;
78489;SDS011;67776;52.012;4.736;2023-03-19T00:45:06;20.98;;;9.02;;
78489;SDS011;67776;52.012;4.736;2023-03-19T00:47:32;19.15;;;10.25;;
78489;SDS011;67776;52.012;4.736;2023-03-19T00:49:57;19.43;;;9.87;;
78489;SDS011;67776;52.012;4.736;2023-03-19T00:52:24;20.42;;;10.77;;
78489;SDS011;67776;52.012;4.736;2023-03-19T00:54:49;18.43;;;10.90;;
78489;SDS011;67776;52.012;4.736;2023-03-19T00:57:14;18.20;;;10.17;;
78489;SDS011;67776;52.012;4.736;2023-03-19T00:59:40;18.58;;;11.07;;
78489;SDS011;67776;52.012;4.736;2023-03-19T01:02:05;18.20;;;10.30;;
78489;SDS011;67776;52.012;4.736;2023-03-19T01:04:31;16.13;;;9.57;;
78489;SDS011;67776;52.012;4.736;2023-03-19T01:06:56;17.70;;;10.17;;
78489;SDS011;67776;52.012;4.736;2023-03-19T01:09:22;20.38;;;10.45;;
78489;SDS011;67776;52.012;4.736;2023-03-19T01:11:47;19.30;;;11.20;;
78489;SDS011;67776;52.012;4.736;2023-03-19T01:14:14;20.03;;;10.17;;
78489;SDS011;67776;52.012;4.736;2023-03-19T01:16:41;24.85;;;11.95;;
78489;SDS011;67776;52.012;4.736;2023-03-19T01:19:06;19.87;;;11.17;;
78489;SDS011;67776;52.012;4.736;2023-03-19T01:21:31;21.17;;;11.20;;
78489;SDS011;67776;52.012;4.736;2023-03-19T01:23:57;22.02;;;11.15;;
78489;SDS011;67776;52.012;4.736;2023-03-19T01:26:23;22.73;;;11.70;;
78489;SDS011;67776;52.012;4.736;2023-03-19T01:28:48;23.02;;;12.13;;
78489;SDS011;67776;52.012;4.736;2023-03-19T01:31:14;22.87;;;12.47;;
78489;SDS011;67776;52.012;4.736;2023-03-19T01:33:39;23.43;;;12.10;;
78489;SDS011;67776;52.012;4.736;2023-03-19T01:36:05;23.35;;;12.30;;
78489;SDS011;67776;52.012;4.736;2023-03-19T01:38:32;26.20;;;13.02;;
78489;SDS011;67776;52.012;4.736;2023-03-19T01:40:57;27.47;;;12.73;;
78489;SDS011;67776;52.012;4.736;2023-03-19T01:43:23;23.20;;;12.93;;
78489;SDS011;67776;52.012;4.736;2023-03-19T01:45:57;24.25;;;12.68;;
78489;SDS011;67776;52.012;4.736;2023-03-19T01:51:21;20.80;;;11.23;;
78489;SDS011;67776;52.012;4.736;2023-03-19T01:53:50;22.88;;;10.35;;
78489;SDS011;67776;52.012;4.736;2023-03-19T01:58:55;19.73;;;10.60;;
78489;SDS011;67776;52.012;4.736;2023-03-19T02:01:23;21.73;;;10.57;;
78489;SDS011;67776;52.012;4.736;2023-03-19T02:03:50;20.60;;;10.27;;
78489;SDS011;67776;52.012;4.736;2023-03-19T02:06:18;18.73;;;9.27;;
78489;SDS011;67776;52.012;4.736;2023-03-19T02:08:45;16.65;;;9.13;;
78489;SDS011;67776;52.012;4.736;2023-03-19T02:11:11;19.33;;;8.65;;
78489;SDS011;67776;52.012;4.736;2023-03-19T02:13:37;15.65;;;8.25;;
78489;SDS011;67776;52.012;4.736;2023-03-19T02:16:03;17.03;;;8.27;;
78489;SDS011;67776;52.012;4.736;2023-03-19T02:18:28;17.90;;;8.27;;
78489;SDS011;67776;52.012;4.736;2023-03-19T02:21:05;15.80;;;8.63;;
78489;SDS011;67776;52.012;4.736;2023-03-19T02:26:06;18.48;;;8.90;;
78489;SDS011;67776;52.012;4.736;2023-03-19T02:28:32;18.33;;;9.00;;
78489;SDS011;67776;52.012;4.736;2023-03-19T02:31:00;18.02;;;9.60;;
78489;SDS011;67776;52.012;4.736;2023-03-19T02:33:25;18.43;;;9.67;;
78489;SDS011;67776;52.012;4.736;2023-03-19T02:35:51;17.98;;;9.80;;
78489;SDS011;67776;52.012;4.736;2023-03-19T02:38:17;19.80;;;9.47;;
78489;SDS011;67776;52.012;4.736;2023-03-19T02:40:48;19.95;;;10.38;;
78489;SDS011;67776;52.012;4.736;2023-03-19T02:43:18;20.27;;;10.38;;
78489;SDS011;67776;52.012;4.736;2023-03-19T02:45:45;18.73;;;10.10;;
78489;SDS011;67776;52.012;4.736;2023-03-19T02:48:11;21.13;;;11.00;;
78489;SDS011;67776;52.012;4.736;2023-03-19T02:50:36;25.77;;;11.70;;
78489;SDS011;67776;52.012;4.736;2023-03-19T02:53:02;25.10;;;11.93;;
78489;SDS011;67776;52.012;4.736;2023-03-19T02:55:27;23.50;;;11.35;;
78489;SDS011;67776;52.012;4.736;2023-03-19T02:57:52;21.33;;;11.33;;
78489;SDS011;67776;52.012;4.736;2023-03-19T03:00:18;25.80;;;11.85;;
78489;SDS011;67776;52.012;4.736;2023-03-19T03:02:44;23.47;;;11.73;;
78489;SDS011;67776;52.012;4.736;2023-03-19T03:05:10;23.88;;;10.77;;
78489;SDS011;67776;52.012;4.736;2023-03-19T03:07:37;24.75;;;11.35;;
78489;SDS011;67776;52.012;4.736;2023-03-19T03:10:04;21.17;;;11.23;;
78489;SDS011;67776;52.012;4.736;2023-03-19T03:12:30;21.43;;;10.43;;
78489;SDS011;67776;52.012;4.736;2023-03-19T03:14:56;20.85;;;10.50;;
78489;SDS011;67776;52.012;4.736;2023-03-19T03:17:21;23.03;;;11.00;;
78489;SDS011;67776;52.012;4.736;2023-03-19T03:19:47;21.92;;;10.88;;
78489;SDS011;67776;52.012;4.736;2023-03-19T03:22:12;20.20;;;9.90;;
78489;SDS011;67776;52.012;4.736;2023-03-19T03:24:37;21.60;;;10.10;;
78489;SDS011;67776;52.012;4.736;2023-03-19T03:27:03;21.70;;;10.23;;
78489;SDS011;67776;52.012;4.736;2023-03-19T03:29:29;21.88;;;11.10;;
78489;SDS011;67776;52.012;4.736;2023-03-19T03:31:54;22.60;;;10.13;;
78489;SDS011;67776;52.012;4.736;2023-03-19T03:34:19;23.40;;;11.63;;
78489;SDS011;67776;52.012;4.736;2023-03-19T03:36:45;23.03;;;11.27;;
78489;SDS011;67776;52.012;4.736;2023-03-19T03:39:13;23.08;;;11.55;;
78489;SDS011;67776;52.012;4.736;2023-03-19T03:41:38;23.33;;;11.33;;
78489;SDS011;67776;52.012;4.736;2023-03-19T03:44:04;22.83;;;10.93;;
78489;SDS011;67776;52.012;4.736;2023-03-19T03:46:30;24.02;;;11.15;;
78489;SDS011;67776;52.012;4.736;2023-03-19T03:48:56;23.17;;;10.93;;
78489;SDS011;67776;52.012;4.736;2023-03-19T03:51:21;23.00;;;11.13;;
78489;SDS011;67776;52.012;4.736;2023-03-19T03:53:47;22.23;;;11.23;;
78489;SDS011;67776;52.012;4.736;2023-03-19T03:56:12;23.40;;;12.03;;
78489;SDS011;67776;52.012;4.736;2023-03-19T03:58:38;26.53;;;11.43;;
78489;SDS011;67776;52.012;4.736;2023-03-19T04:01:03;25.37;;;12.87;;
78489;SDS011;67776;52.012;4.736;2023-03-19T04:03:30;26.88;;;12.93;;
78489;SDS011;67776;52.012;4.736;2023-03-19T04:05:55;26.67;;;12.97;;
78489;SDS011;67776;52.012;4.736;2023-03-19T04:08:21;30.63;;;14.27;;
78489;SDS011;67776;52.012;4.736;2023-03-19T04:10:46;30.23;;;14.90;;
78489;SDS011;67776;52.012;4.736;2023-03-19T04:13:11;28.20;;;14.87;;
78489;SDS011;67776;52.012;4.736;2023-03-19T04:15:37;31.60;;;14.85;;
78489;SDS011;67776;52.012;4.736;2023-03-19T04:18:03;30.57;;;14.83;;
78489;SDS011;67776;52.012;4.736;2023-03-19T04:20:29;31.25;;;14.30;;
78489;SDS011;67776;52.012;4.736;2023-03-19T04:22:55;30.60;;;15.50;;
78489;SDS011;67776;52.012;4.736;2023-03-19T04:25:20;32.03;;;15.13;;
78489;SDS011;67776;52.012;4.736;2023-03-19T04:27:46;32.80;;;15.97;;
78489;SDS011;67776;52.012;4.736;2023-03-19T04:30:11;34.00;;;16.02;;
78489;SDS011;67776;52.012;4.736;2023-03-19T04:32:37;33.00;;;15.93;;
78489;SDS011;67776;52.012;4.736;2023-03-19T04:35:03;30.58;;;15.27;;
78489;SDS011;67776;52.012;4.736;2023-03-19T04:37:29;33.60;;;15.57;;
78489;SDS011;67776;52.012;4.736;2023-03-19T04:39:54;33.58;;;16.17;;
78489;SDS011;67776;52.012;4.736;2023-03-19T04:42:20;31.80;;;15.80;;
78489;SDS011;67776;52.012;4.736;2023-03-19T04:44:45;33.90;;;17.30;;
78489;SDS011;67776;52.012;4.736;2023-03-19T04:47:11;31.90;;;16.05;;
78489;SDS011;67776;52.012;4.736;2023-03-19T04:49:36;33.10;;;16.10;;
78489;SDS011;67776;52.012;4.736;2023-03-19T04:52:02;31.00;;;15.90;;
78489;SDS011;67776;52.012;4.736;2023-03-19T04:54:27;35.97;;;17.00;;
78489;SDS011;67776;52.012;4.736;2023-03-19T04:56:53;35.72;;;16.70;;
78489;SDS011;67776;52.012;4.736;2023-03-19T04:59:19;36.27;;;16.77;;
78489;SDS011;67776;52.012;4.736;2023-03-19T05:01:44;36.60;;;16.37;;
78489;SDS011;67776;52.012;4.736;2023-03-19T05:04:09;35.60;;;16.93;;
78489;SDS011;67776;52.012;4.736;2023-03-19T05:06:35;37.67;;;17.63;;
78489;SDS011;67776;52.012;4.736;2023-03-19T05:09:02;41.78;;;18.45;;
78489;SDS011;67776;52.012;4.736;2023-03-19T05:11:28;39.38;;;17.20;;
78489;SDS011;67776;52.012;4.736;2023-03-19T05:13:54;37.57;;;17.30;;
78489;SDS011;67776;52.012;4.736;2023-03-19T05:16:19;43.33;;;18.23;;
78489;SDS011;67776;52.012;4.736;2023-03-19T05:18:45;38.92;;;17.80;;
78489;SDS011;67776;52.012;4.736;2023-03-19T05:21:11;40.08;;;18.00;;
78489;SDS011;67776;52.012;4.736;2023-03-19T05:23:37;43.13;;;18.00;;
78489;SDS011;67776;52.012;4.736;2023-03-19T05:26:03;37.25;;;16.90;;
78489;SDS011;67776;52.012;4.736;2023-03-19T05:28:30;41.17;;;17.88;;
78489;SDS011;67776;52.012;4.736;2023-03-19T05:30:56;43.10;;;18.30;;
78489;SDS011;67776;52.012;4.736;2023-03-19T05:33:21;41.40;;;17.73;;
78489;SDS011;67776;52.012;4.736;2023-03-19T05:35:47;41.33;;;18.10;;
78489;SDS011;67776;52.012;4.736;2023-03-19T05:38:13;46.00;;;19.00;;
78489;SDS011;67776;52.012;4.736;2023-03-19T05:40:38;43.33;;;18.83;;
78489;SDS011;67776;52.012;4.736;2023-03-19T05:43:06;48.88;;;19.20;;
78489;SDS011;67776;52.012;4.736;2023-03-19T05:45:31;45.22;;;17.75;;
78489;SDS011;67776;52.012;4.736;2023-03-19T05:47:57;46.53;;;18.23;;
78489;SDS011;67776;52.012;4.736;2023-03-19T05:50:22;48.67;;;18.73;;
78489;SDS011;67776;52.012;4.736;2023-03-19T05:52:48;48.55;;;19.08;;
78489;SDS011;67776;52.012;4.736;2023-03-19T05:55:13;45.13;;;19.07;;
78489;SDS011;67776;52.012;4.736;2023-03-19T05:57:38;43.00;;;17.87;;
78489;SDS011;67776;52.012;4.736;2023-03-19T06:00:04;42.63;;;17.87;;
78489;SDS011;67776;52.012;4.736;2023-03-19T06:02:31;43.58;;;16.45;;
78489;SDS011;67776;52.012;4.736;2023-03-19T06:04:57;49.35;;;19.10;;
78489;SDS011;67776;52.012;4.736;2023-03-19T06:07:22;48.50;;;18.20;;
78489;SDS011;67776;52.012;4.736;2023-03-19T06:09:48;45.47;;;18.30;;
78489;SDS011;67776;52.012;4.736;2023-03-19T06:12:13;46.53;;;19.40;;
78489;SDS011;67776;52.012;4.736;2023-03-19T06:14:40;49.00;;;19.45;;
78489;SDS011;67776;52.012;4.736;2023-03-19T06:17:05;48.73;;;19.33;;
78489;SDS011;67776;52.012;4.736;2023-03-19T06:19:31;50.15;;;17.90;;
78489;SDS011;67776;52.012;4.736;2023-03-19T06:21:56;51.77;;;19.00;;
78489;SDS011;67776;52.012;4.736;2023-03-19T06:24:22;47.23;;;19.00;;
78489;SDS011;67776;52.012;4.736;2023-03-19T06:26:47;47.53;;;19.13;;
78489;SDS011;67776;52.012;4.736;2023-03-19T06:29:12;49.05;;;18.70;;
78489;SDS011;67776;52.012;4.736;2023-03-19T06:31:37;56.07;;;20.50;;
78489;SDS011;67776;52.012;4.736;2023-03-19T06:34:05;53.20;;;19.27;;
78489;SDS011;67776;52.012;4.736;2023-03-19T06:36:31;51.50;;;19.27;;
78489;SDS011;67776;52.012;4.736;2023-03-19T06:38:56;48.27;;;19.30;;
78489;SDS011;67776;52.012;4.736;2023-03-19T06:41:21;51.97;;;18.67;;
78489;SDS011;67776;52.012;4.736;2023-03-19T06:43:48;53.55;;;18.98;;
78489;SDS011;67776;52.012;4.736;2023-03-19T06:46:14;53.23;;;19.83;;
78489;SDS011;67776;52.012;4.736;2023-03-19T06:48:39;58.03;;;20.13;;
78489;SDS011;67776;52.012;4.736;2023-03-19T06:51:04;56.57;;;19.23;;
78489;SDS011;67776;52.012;4.736;2023-03-19T06:53:30;48.90;;;17.63;;
78489;SDS011;67776;52.012;4.736;2023-03-19T06:55:56;55.20;;;19.00;;
78489;SDS011;67776;52.012;4.736;2023-03-19T06:58:21;60.47;;;19.93;;
78489;SDS011;67776;52.012;4.736;2023-03-19T07:00:46;63.38;;;19.85;;
78489;SDS011;67776;52.012;4.736;2023-03-19T07:03:12;62.43;;;20.63;;
78489;SDS011;67776;52.012;4.736;2023-03-19T07:05:37;68.23;;;20.83;;
78489;SDS011;67776;52.012;4.736;2023-03-19T07:08:03;68.73;;;19.97;;
78489;SDS011;67776;52.012;4.736;2023-03-19T07:10:28;65.38;;;19.73;;
78489;SDS011;67776;52.012;4.736;2023-03-19T07:12:54;62.50;;;19.23;;
78489;SDS011;67776;52.012;4.736;2023-03-19T07:15:19;64.93;;;19.20;;
78489;SDS011;67776;52.012;4.736;2023-03-19T07:17:45;65.75;;;20.70;;
78489;SDS011;67776;52.012;4.736;2023-03-19T07:20:12;59.22;;;18.98;;
78489;SDS011;67776;52.012;4.736;2023-03-19T07:22:38;60.97;;;18.17;;
78489;SDS011;67776;52.012;4.736;2023-03-19T07:25:03;60.78;;;18.95;;
78489;SDS011;67776;52.012;4.736;2023-03-19T07:27:29;59.40;;;16.73;;
78489;SDS011;67776;52.012;4.736;2023-03-19T07:29:54;59.77;;;18.03;;
78489;SDS011;67776;52.012;4.736;2023-03-19T07:32:20;54.70;;;16.60;;
78489;SDS011;67776;52.012;4.736;2023-03-19T07:34:47;59.65;;;18.00;;
78489;SDS011;67776;52.012;4.736;2023-03-19T07:37:13;58.25;;;15.90;;
78489;SDS011;67776;52.012;4.736;2023-03-19T07:39:38;61.97;;;16.53;;
78489;SDS011;67776;52.012;4.736;2023-03-19T07:42:04;57.53;;;17.20;;
78489;SDS011;67776;52.012;4.736;2023-03-19T07:44:29;57.83;;;17.00;;
78489;SDS011;67776;52.012;4.736;2023-03-19T07:46:55;62.57;;;16.90;;
78489;SDS011;67776;52.012;4.736;2023-03-19T07:49:20;67.23;;;17.57;;
78489;SDS011;67776;52.012;4.736;2023-03-19T07:51:47;67.05;;;17.50;;
78489;SDS011;67776;52.012;4.736;2023-03-19T07:54:12;64.87;;;17.17;;
78489;SDS011;67776;52.012;4.736;2023-03-19T07:56:37;63.53;;;16.00;;
78489;SDS011;67776;52.012;4.736;2023-03-19T07:59:03;61.20;;;18.13;;
78489;SDS011;67776;52.012;4.736;2023-03-19T08:01:28;64.23;;;17.73;;
78489;SDS011;67776;52.012;4.736;2023-03-19T08:03:53;59.10;;;16.90;;
78489;SDS011;67776;52.012;4.736;2023-03-19T08:06:19;64.07;;;17.40;;
78489;SDS011;67776;52.012;4.736;2023-03-19T08:08:44;63.73;;;17.33;;
78489;SDS011;67776;52.012;4.736;2023-03-19T08:11:10;67.25;;;19.67;;
78489;SDS011;67776;52.012;4.736;2023-03-19T08:13:35;60.07;;;18.07;;
78489;SDS011;67776;52.012;4.736;2023-03-19T08:16:00;60.27;;;17.07;;
78489;SDS011;67776;52.012;4.736;2023-03-19T08:18:26;55.87;;;17.87;;
78489;SDS011;67776;52.012;4.736;2023-03-19T08:20:51;58.73;;;16.87;;
78489;SDS011;67776;52.012;4.736;2023-03-19T08:23:17;50.90;;;16.43;;
78489;SDS011;67776;52.012;4.736;2023-03-19T08:25:42;54.67;;;17.00;;
78489;SDS011;67776;52.012;4.736;2023-03-19T08:28:08;59.73;;;16.40;;
78489;SDS011;67776;52.012;4.736;2023-03-19T08:30:34;60.88;;;17.52;;
78489;SDS011;67776;52.012;4.736;2023-03-19T08:33:02;62.13;;;17.20;;
78489;SDS011;67776;52.012;4.736;2023-03-19T08:35:28;56.50;;;16.20;;
78489;SDS011;67776;52.012;4.736;2023-03-19T08:37:54;58.58;;;16.88;;
78489;SDS011;67776;52.012;4.736;2023-03-19T08:40:20;58.17;;;17.13;;
78489;SDS011;67776;52.012;4.736;2023-03-19T08:42:47;65.85;;;16.77;;
78489;SDS011;67776;52.012;4.736;2023-03-19T08:45:13;58.40;;;16.38;;
78489;SDS011;67776;52.012;4.736;2023-03-19T08:47:40;57.55;;;16.08;;
78489;SDS011;67776;52.012;4.736;2023-03-19T08:50:06;61.97;;;16.83;;
78489;SDS011;67776;52.012;4.736;2023-03-19T08:52:32;59.93;;;17.53;;
78489;SDS011;67776;52.012;4.736;2023-03-19T08:54:57;59.88;;;15.85;;
78489;SDS011;67776;52.012;4.736;2023-03-19T08:57:22;56.30;;;16.70;;
78489;SDS011;67776;52.012;4.736;2023-03-19T08:59:48;54.47;;;16.63;;
78489;SDS011;67776;52.012;4.736;2023-03-19T09:02:14;55.28;;;16.55;;
78489;SDS011;67776;52.012;4.736;2023-03-19T09:04:40;55.47;;;16.30;;
78489;SDS011;67776;52.012;4.736;2023-03-19T09:07:08;47.75;;;14.82;;
78489;SDS011;67776;52.012;4.736;2023-03-19T09:09:37;54.50;;;15.27;;
78489;SDS011;67776;52.012;4.736;2023-03-19T09:12:03;51.87;;;14.47;;
78489;SDS011;67776;52.012;4.736;2023-03-19T09:14:29;51.95;;;16.05;;
78489;SDS011;67776;52.012;4.736;2023-03-19T09:16:55;55.17;;;16.23;;
78489;SDS011;67776;52.012;4.736;2023-03-19T09:19:20;46.70;;;14.33;;
78489;SDS011;67776;52.012;4.736;2023-03-19T09:21:47;48.50;;;14.65;;
78489;SDS011;67776;52.012;4.736;2023-03-19T09:24:13;49.17;;;14.80;;
78489;SDS011;67776;52.012;4.736;2023-03-19T09:26:39;46.30;;;14.40;;
78489;SDS011;67776;52.012;4.736;2023-03-19T09:29:04;47.45;;;15.13;;
78489;SDS011;67776;52.012;4.736;2023-03-19T09:31:30;41.03;;;13.37;;
78489;SDS011;67776;52.012;4.736;2023-03-19T09:33:55;52.17;;;15.43;;
78489;SDS011;67776;52.012;4.736;2023-03-19T09:36:21;44.10;;;14.50;;
78489;SDS011;67776;52.012;4.736;2023-03-19T09:38:46;43.27;;;13.97;;
78489;SDS011;67776;52.012;4.736;2023-03-19T09:41:15;47.50;;;14.68;;
78489;SDS011;67776;52.012;4.736;2023-03-19T09:44:10;48.03;;;13.60;;
78489;SDS011;67776;52.012;4.736;2023-03-19T09:46:40;41.22;;;13.65;;
78489;SDS011;67776;52.012;4.736;2023-03-19T09:49:26;40.17;;;14.13;;
78489;SDS011;67776;52.012;4.736;2023-03-19T09:52:38;42.60;;;14.25;;
78489;SDS011;67776;52.012;4.736;2023-03-19T09:54:49;47.78;;;15.48;;
78489;SDS011;67776;52.012;4.736;2023-03-19T09:57:16;46.17;;;14.75;;
78489;SDS011;67776;52.012;4.736;2023-03-19T09:59:42;44.22;;;14.30;;
78489;SDS011;67776;52.012;4.736;2023-03-19T10:15:43;43.83;;;15.30;;
78489;SDS011;67776;52.012;4.736;2023-03-19T10:18:16;43.03;;;15.45;;
78489;SDS011;67776;52.012;4.736;2023-03-19T10:20:58;46.87;;;15.57;;
78489;SDS011;67776;52.012;4.736;2023-03-19T10:23:42;47.85;;;17.05;;
78489;SDS011;67776;52.012;4.736;2023-03-19T10:26:15;52.15;;;17.20;;
78489;SDS011;67776;52.012;4.736;2023-03-19T10:28:44;55.38;;;18.20;;
78489;SDS011;67776;52.012;4.736;2023-03-19T10:31:32;50.85;;;16.65;;
78489;SDS011;67776;52.012;4.736;2023-03-19T10:34:29;52.97;;;16.17;;
78489;SDS011;67776;52.012;4.736;2023-03-19T10:36:57;53.95;;;18.15;;
78489;SDS011;67776;52.012;4.736;2023-03-19T10:39:28;49.72;;;16.95;;
78489;SDS011;67776;52.012;4.736;2023-03-19T10:41:59;47.85;;;17.25;;
78489;SDS011;67776;52.012;4.736;2023-03-19T10:44:41;52.28;;;18.65;;
78489;SDS011;67776;52.012;4.736;2023-03-19T10:47:13;50.60;;;17.97;;
78489;SDS011;67776;52.012;4.736;2023-03-19T10:49:40;47.88;;;17.33;;
78489;SDS011;67776;52.012;4.736;2023-03-19T10:52:16;48.72;;;18.05;;
78489;SDS011;67776;52.012;4.736;2023-03-19T10:54:45;53.25;;;19.25;;
78489;SDS011;67776;52.012;4.736;2023-03-19T10:57:26;51.33;;;18.90;;
78489;SDS011;67776;52.012;4.736;2023-03-19T10:59:52;52.42;;;17.02;;
78489;SDS011;67776;52.012;4.736;2023-03-19T11:02:19;46.07;;;17.17;;
78489;SDS011;67776;52.012;4.736;2023-03-19T11:04:47;45.35;;;15.23;;
78489;SDS011;67776;52.012;4.736;2023-03-19T11:07:17;46.13;;;15.88;;
78489;SDS011;67776;52.012;4.736;2023-03-19T11:09:47;53.67;;;17.43;;
78489;SDS011;67776;52.012;4.736;2023-03-19T11:14:52;49.42;;;18.25;;
78489;SDS011;67776;52.012;4.736;2023-03-19T11:20:27;51.08;;;18.25;;
78489;SDS011;67776;52.012;4.736;2023-03-19T11:22:56;50.47;;;17.87;;
78489;SDS011;67776;52.012;4.736;2023-03-19T11:25:34;51.40;;;17.10;;
78489;SDS011;67776;52.012;4.736;2023-03-19T11:28:06;48.63;;;18.05;;
78489;SDS011;67776;52.012;4.736;2023-03-19T11:35:58;41.40;;;16.07;;
78489;SDS011;67776;52.012;4.736;2023-03-19T11:44:16;45.78;;;15.82;;
78489;SDS011;67776;52.012;4.736;2023-03-19T11:47:26;41.22;;;16.65;;
78489;SDS011;67776;52.012;4.736;2023-03-19T12:00:51;34.88;;;14.73;;
78489;SDS011;67776;52.012;4.736;2023-03-19T12:06:31;41.55;;;15.98;;
78489;SDS011;67776;52.012;4.736;2023-03-19T12:09:35;36.97;;;15.35;;
78489;SDS011;67776;52.012;4.736;2023-03-19T12:12:09;39.60;;;16.38;;
78489;SDS011;67776;52.012;4.736;2023-03-19T12:15:09;41.40;;;15.80;;
78489;SDS011;67776;52.012;4.736;2023-03-19T12:17:53;36.93;;;15.80;;
78489;SDS011;67776;52.012;4.736;2023-03-19T12:20:41;38.30;;;16.35;;
78489;SDS011;67776;52.012;4.736;2023-03-19T12:25:51;41.20;;;15.90;;
78489;SDS011;67776;52.012;4.736;2023-03-19T12:28:28;31.80;;;13.75;;
78489;SDS011;67776;52.012;4.736;2023-03-19T12:31:08;35.00;;;15.40;;
78489;SDS011;67776;52.012;4.736;2023-03-19T12:36:30;30.17;;;13.43;;
78489;SDS011;67776;52.012;4.736;2023-03-19T12:39:01;31.42;;;14.00;;
78489;SDS011;67776;52.012;4.736;2023-03-19T12:41:34;32.67;;;13.35;;
78489;SDS011;67776;52.012;4.736;2023-03-19T12:44:08;33.37;;;14.07;;
78489;SDS011;67776;52.012;4.736;2023-03-19T12:46:54;27.05;;;12.70;;
78489;SDS011;67776;52.012;4.736;2023-03-19T12:49:36;28.65;;;13.00;;
78489;SDS011;67776;52.012;4.736;2023-03-19T12:52:28;27.25;;;11.30;;
78489;SDS011;67776;52.012;4.736;2023-03-19T12:55:05;25.02;;;11.77;;
78489;SDS011;67776;52.012;4.736;2023-03-19T13:00:23;24.27;;;11.38;;
78489;SDS011;67776;52.012;4.736;2023-03-19T13:08:02;21.55;;;11.00;;
78489;SDS011;67776;52.012;4.736;2023-03-19T13:10:38;21.48;;;10.18;;
78489;SDS011;67776;52.012;4.736;2023-03-19T13:15:51;16.70;;;8.73;;
78489;SDS011;67776;52.012;4.736;2023-03-19T13:20:59;17.05;;;8.00;;
78489;SDS011;67776;52.012;4.736;2023-03-19T13:23:40;17.75;;;8.20;;
78489;SDS011;67776;52.012;4.736;2023-03-19T13:26:08;21.23;;;10.40;;
78489;SDS011;67776;52.012;4.736;2023-03-19T13:28:37;23.67;;;9.80;;
78489;SDS011;67776;52.012;4.736;2023-03-19T13:31:20;21.83;;;10.45;;
78489;SDS011;67776;52.012;4.736;2023-03-19T13:34:01;21.00;;;9.90;;
78489;SDS011;67776;52.012;4.736;2023-03-19T13:36:28;22.85;;;10.00;;
78489;SDS011;67776;52.012;4.736;2023-03-19T13:38:55;20.15;;;9.43;;
78489;SDS011;67776;52.012;4.736;2023-03-19T13:46:46;20.95;;;9.52;;
78489;SDS011;67776;52.012;4.736;2023-03-19T13:49:22;20.67;;;9.10;;
78489;SDS011;67776;52.012;4.736;2023-03-19T13:51:59;18.75;;;8.60;;
78489;SDS011;67776;52.012;4.736;2023-03-19T13:54:32;20.20;;;9.03;;
78489;SDS011;67776;52.012;4.736;2023-03-19T13:59:41;18.17;;;7.65;;
78489;SDS011;67776;52.012;4.736;2023-03-19T14:04:49;17.42;;;7.15;;
78489;SDS011;67776;52.012;4.736;2023-03-19T14:07:25;16.90;;;7.10;;
78489;SDS011;67776;52.012;4.736;2023-03-19T14:15:30;15.82;;;7.72;;
78489;SDS011;67776;52.012;4.736;2023-03-19T14:23:01;15.40;;;7.57;;
78489;SDS011;67776;52.012;4.736;2023-03-19T14:28:33;17.40;;;7.95;;
78489;SDS011;67776;52.012;4.736;2023-03-19T14:31:02;15.23;;;8.27;;
78489;SDS011;67776;52.012;4.736;2023-03-19T14:33:38;18.02;;;8.50;;
78489;SDS011;67776;52.012;4.736;2023-03-19T14:36:11;19.40;;;9.02;;
78489;SDS011;67776;52.012;4.736;2023-03-19T14:41:31;18.00;;;10.23;;
78489;SDS011;67776;52.012;4.736;2023-03-19T14:52:35;23.60;;;10.38;;
78489;SDS011;67776;52.012;4.736;2023-03-19T14:55:09;21.75;;;10.18;;
78489;SDS011;67776;52.012;4.736;2023-03-19T14:57:37;23.10;;;10.07;;
78489;SDS011;67776;52.012;4.736;2023-03-19T15:00:03;23.97;;;10.00;;
78489;SDS011;67776;52.012;4.736;2023-03-19T15:02:48;29.08;;;10.82;;
78489;SDS011;67776;52.012;4.736;2023-03-19T15:05:23;26.40;;;12.20;;
78489;SDS011;67776;52.012;4.736;2023-03-19T15:07:55;35.13;;;12.80;;
78489;SDS011;67776;52.012;4.736;2023-03-19T15:10:26;36.13;;;13.23;;
78489;SDS011;67776;52.012;4.736;2023-03-19T15:16:12;31.80;;;12.40;;
78489;SDS011;67776;52.012;4.736;2023-03-19T15:18:45;33.73;;;13.37;;
78489;SDS011;67776;52.012;4.736;2023-03-19T15:21:11;37.43;;;13.10;;
78489;SDS011;67776;52.012;4.736;2023-03-19T15:23:36;28.13;;;12.13;;
78489;SDS011;67776;52.012;4.736;2023-03-19T15:26:04;25.25;;;10.98;;
78489;SDS011;67776;52.012;4.736;2023-03-19T15:28:43;25.40;;;12.80;;
78489;SDS011;67776;52.012;4.736;2023-03-19T15:31:11;27.33;;;12.10;;
78489;SDS011;67776;52.012;4.736;2023-03-19T15:33:37;24.23;;;11.88;;
78489;SDS011;67776;52.012;4.736;2023-03-19T15:38:59;23.17;;;11.40;;
78489;SDS011;67776;52.012;4.736;2023-03-19T15:41:30;23.30;;;12.07;;
78489;SDS011;67776;52.012;4.736;2023-03-19T15:43:57;23.90;;;12.18;;
78489;SDS011;67776;52.012;4.736;2023-03-19T15:46:26;24.27;;;12.77;;
78489;SDS011;67776;52.012;4.736;2023-03-19T15:51:39;22.17;;;11.87;;
78489;SDS011;67776;52.012;4.736;2023-03-19T15:54:04;21.23;;;12.05;;
78489;SDS011;67776;52.012;4.736;2023-03-19T15:56:31;26.10;;;14.20;;
78489;SDS011;67776;52.012;4.736;2023-03-19T15:58:56;24.70;;;11.57;;
78489;SDS011;67776;52.012;4.736;2023-03-19T16:01:24;18.25;;;10.13;;
78489;SDS011;67776;52.012;4.736;2023-03-19T16:03:58;20.67;;;11.13;;
78489;SDS011;67776;52.012;4.736;2023-03-19T16:06:29;23.67;;;11.40;;
78489;SDS011;67776;52.012;4.736;2023-03-19T16:11:46;27.63;;;12.13;;
78489;SDS011;67776;52.012;4.736;2023-03-19T16:14:21;23.57;;;11.03;;
78489;SDS011;67776;52.012;4.736;2023-03-19T16:16:57;25.77;;;11.95;;
78489;SDS011;67776;52.012;4.736;2023-03-19T16:19:38;28.95;;;12.27;;
78489;SDS011;67776;52.012;4.736;2023-03-19T16:22:15;25.02;;;11.60;;
78489;SDS011;67776;52.012;4.736;2023-03-19T16:24:45;29.60;;;12.70;;
78489;SDS011;67776;52.012;4.736;2023-03-19T16:27:12;27.50;;;12.80;;
78489;SDS011;67776;52.012;4.736;2023-03-19T16:29:41;26.20;;;12.02;;